createdAt,value
2023-10-04T00:02:25.224Z,98553.34
2023-10-04T00:04:53.319Z,98547.63
2023-10-04T00:07:20.929Z,98553.38
2023-10-04T00:09:48.613Z,98571.66
2023-10-04T00:12:16.354Z,98571.44
2023-10-04T00:14:43.989Z,98575.78
2023-10-04T00:17:11.445Z,98566.09
2023-10-04T00:19:40.487Z,98569.41
2023-10-04T00:22:09.175Z,98572.88
2023-10-04T00:24:38.941Z,98573.13
2023-10-04T00:27:06.933Z,98574.97
2023-10-04T00:29:34.469Z,98567.00
2023-10-04T00:32:02.226Z,98571.94
2023-10-04T00:34:30.349Z,98562.50
2023-10-04T00:36:58.062Z,98563.69
2023-10-04T00:39:26.430Z,98569.47
2023-10-04T00:41:56.948Z,98560.25
2023-10-04T00:44:24.568Z,98558.78
2023-10-04T00:46:52.544Z,98563.06
2023-10-04T00:49:20.290Z,98568.28
2023-10-04T00:51:48.066Z,98564.41
2023-10-04T00:54:17.158Z,98567.50
2023-10-04T00:56:47.679Z,98560.69
2023-10-04T00:59:18.271Z,98557.22
2023-10-04T01:01:46.203Z,98554.53
2023-10-04T01:04:14.049Z,98553.78
2023-10-04T01:06:44.245Z,98551.28
2023-10-04T01:09:12.580Z,98546.59
2023-10-04T01:11:47.303Z,98544.97
2023-10-04T01:14:27.125Z,98557.72
2023-10-04T01:16:56.805Z,98558.53
2023-10-04T01:19:24.627Z,98548.72
2023-10-04T01:21:52.186Z,98545.44
2023-10-04T01:24:20.779Z,98544.44
2023-10-04T01:26:48.389Z,98551.19
2023-10-04T01:29:16.990Z,98544.03
2023-10-04T01:31:44.652Z,98546.28
2023-10-04T01:34:14.771Z,98541.81
2023-10-04T01:36:43.443Z,98536.91
2023-10-04T01:39:20.966Z,98545.91
2023-10-04T01:41:49.250Z,98564.00
2023-10-04T01:44:17.441Z,98556.56
2023-10-04T01:46:45.144Z,98563.34
2023-10-04T01:49:13.367Z,98565.19
2023-10-04T01:51:46.135Z,98577.50
2023-10-04T01:54:16.977Z,98579.34
2023-10-04T01:56:44.668Z,98586.19
2023-10-04T01:59:15.789Z,98587.00
2023-10-04T02:01:43.386Z,98588.03
2023-10-04T02:04:11.013Z,98580.66
2023-10-04T02:06:39.259Z,98591.72
2023-10-04T02:09:12.368Z,98599.09
2023-10-04T02:11:42.422Z,98588.63
2023-10-04T02:14:11.647Z,98594.19
2023-10-04T02:16:39.376Z,98600.53
2023-10-04T02:19:07.275Z,98599.53
2023-10-04T02:21:35.220Z,98595.59
2023-10-04T02:24:03.769Z,98606.44
2023-10-04T02:26:32.977Z,98606.84
2023-10-04T02:29:00.631Z,98600.53
2023-10-04T02:31:30.882Z,98604.84
2023-10-04T02:33:58.766Z,98596.66
2023-10-04T02:36:27.262Z,98604.44
2023-10-04T02:38:56.797Z,98609.19
2023-10-04T02:41:27.645Z,98614.09
2023-10-04T02:43:55.820Z,98620.41
2023-10-04T02:46:23.431Z,98618.56
2023-10-04T02:48:51.149Z,98627.19
2023-10-04T02:51:18.673Z,98618.94
2023-10-04T02:53:46.969Z,98624.50
2023-10-04T02:56:15.318Z,98614.00
2023-10-04T02:58:45.754Z,98606.81
2023-10-04T03:01:29.146Z,98614.81
2023-10-04T03:03:57.535Z,98615.63
2023-10-04T03:06:29.363Z,98619.31
2023-10-04T03:08:59.288Z,98624.84
2023-10-04T03:11:29.007Z,98630.75
2023-10-04T03:14:00.717Z,98634.19
2023-10-04T03:16:31.011Z,98627.84
2023-10-04T03:18:59.441Z,98636.28
2023-10-04T03:21:32.366Z,98634.63
2023-10-04T03:24:01.509Z,98642.44
2023-10-04T03:26:30.550Z,98638.28
2023-10-04T03:29:02.289Z,98638.34
2023-10-04T03:31:34.825Z,98642.25
2023-10-04T03:34:05.851Z,98640.22
2023-10-04T03:36:36.312Z,98637.78
2023-10-04T03:39:11.677Z,98645.19
2023-10-04T03:41:43.657Z,98649.78
2023-10-04T03:44:13.181Z,98639.47
2023-10-04T03:46:41.101Z,98644.00
2023-10-04T03:49:08.888Z,98647.25
2023-10-04T03:51:36.557Z,98649.72
2023-10-04T03:54:08.903Z,98647.28
2023-10-04T03:56:42.657Z,98637.03
2023-10-04T03:59:12.382Z,98634.34
2023-10-04T04:01:40.303Z,98637.00
2023-10-04T04:04:16.213Z,98632.31
2023-10-04T04:06:45.211Z,98634.75
2023-10-04T04:09:14.390Z,98634.56
2023-10-04T04:11:42.354Z,98642.75
2023-10-04T04:14:10.029Z,98641.09
2023-10-04T04:16:39.522Z,98648.91
2023-10-04T04:19:09.230Z,98651.38
2023-10-04T04:21:37.415Z,98655.69
2023-10-04T04:24:11.259Z,98650.47
2023-10-04T04:26:40.861Z,98652.38
2023-10-04T04:29:11.299Z,98650.34
2023-10-04T04:31:41.988Z,98649.31
2023-10-04T04:34:15.025Z,98659.94
2023-10-04T04:36:43.698Z,98656.66
2023-10-04T04:39:19.691Z,98648.91
2023-10-04T04:41:52.820Z,98645.63
2023-10-04T04:44:30.534Z,98648.69
2023-10-04T04:46:58.992Z,98650.53
2023-10-04T04:49:27.409Z,98653.44
2023-10-04T04:51:56.854Z,98655.91
2023-10-04T04:54:25.196Z,98662.03
2023-10-04T04:56:55.297Z,98648.09
2023-10-04T04:59:25.859Z,98665.13
2023-10-04T05:01:56.925Z,98668.00
2023-10-04T05:04:24.696Z,98666.97
2023-10-04T05:06:52.756Z,98662.03
2023-10-04T05:09:20.526Z,98662.84
2023-10-04T05:11:48.240Z,98659.78
2023-10-04T05:14:16.006Z,98667.38
2023-10-04T05:16:43.617Z,98664.91
2023-10-04T05:19:11.579Z,98655.06
2023-10-04T05:21:39.333Z,98659.19
2023-10-04T05:24:08.012Z,98659.16
2023-10-04T05:26:37.119Z,98664.06
2023-10-04T05:29:05.431Z,98668.97
2023-10-04T05:31:33.238Z,98662.56
2023-10-04T05:34:01.018Z,98665.09
2023-10-04T05:36:28.721Z,98657.94
2023-10-04T05:38:57.007Z,98662.63
2023-10-04T05:41:26.714Z,98661.63
2023-10-04T05:43:54.355Z,98655.16
2023-10-04T05:46:21.972Z,98667.53
2023-10-04T05:53:07.085Z,98669.94
2023-10-04T05:55:36.718Z,98666.78
2023-10-04T05:58:09.192Z,98665.38
2023-10-04T06:00:44.127Z,98672.94
2023-10-04T06:03:13.085Z,98673.53
2023-10-04T06:05:42.149Z,98669.22
2023-10-04T06:08:22.403Z,98675.25
2023-10-04T06:10:52.629Z,98674.41
2023-10-04T06:13:24.600Z,98678.34
2023-10-04T06:15:57.525Z,98671.53
2023-10-04T06:18:31.390Z,98692.78
2023-10-04T06:21:00.963Z,98688.78
2023-10-04T06:23:32.671Z,98696.28
2023-10-04T06:26:01.486Z,98694.94
2023-10-04T06:28:30.521Z,98695.59
2023-10-04T06:30:58.373Z,98700.75
2023-10-04T06:33:26.916Z,98708.66
2023-10-04T06:35:54.806Z,98707.63
2023-10-04T06:38:22.466Z,98714.19
2023-10-04T06:40:50.023Z,98708.34
2023-10-04T06:43:17.489Z,98710.16
2023-10-04T06:45:45.287Z,98710.25
2023-10-04T06:48:13.098Z,98716.38
2023-10-04T06:50:41.366Z,98713.25
2023-10-04T06:53:14.310Z,98717.34
2023-10-04T06:55:43.140Z,98723.72
2023-10-04T06:58:13.014Z,98720.47
2023-10-04T07:00:42.985Z,98723.59
2023-10-04T07:03:12.012Z,98727.53
2023-10-04T07:05:41.886Z,98732.44
2023-10-04T07:08:14.964Z,98737.25
2023-10-04T07:10:46.834Z,98740.00
2023-10-04T07:13:15.301Z,98734.63
2023-10-04T07:15:44.119Z,98741.25
2023-10-04T07:18:14.516Z,98749.00
2023-10-04T07:20:43.107Z,98751.97
2023-10-04T07:23:12.534Z,98753.59
2023-10-04T07:25:51.601Z,98758.25
2023-10-04T07:28:20.108Z,98762.34
2023-10-04T07:30:48.525Z,98775.31
2023-10-04T07:33:16.383Z,98769.22
2023-10-04T07:35:44.016Z,98779.16
2023-10-04T07:38:11.836Z,98774.09
2023-10-04T07:40:40.630Z,98773.66
2023-10-04T07:43:08.883Z,98772.88
2023-10-04T07:45:36.705Z,98783.03
2023-10-04T07:48:04.944Z,98792.00
2023-10-04T07:50:33.129Z,98779.19
2023-10-04T07:53:06.716Z,98778.66
2023-10-04T07:55:35.375Z,98773.84
2023-10-04T07:58:05.560Z,98771.66
2023-10-04T08:00:38.978Z,98781.28
2023-10-04T08:03:08.662Z,98780.75
2023-10-04T08:05:37.652Z,98777.75
2023-10-04T08:08:07.533Z,98781.38
2023-10-04T08:10:37.583Z,98780.13
2023-10-04T08:13:06.620Z,98778.75
2023-10-04T08:15:39.349Z,98777.38
2023-10-04T08:18:07.833Z,98784.88
2023-10-04T08:20:38.289Z,98790.94
2023-10-04T08:23:06.387Z,98786.19
2023-10-04T08:25:35.854Z,98785.03
2023-10-04T08:28:06.777Z,98784.22
2023-10-04T08:30:34.434Z,98777.81
2023-10-04T08:33:02.482Z,98783.16
2023-10-04T08:35:30.740Z,98787.53
2023-10-04T08:38:01.756Z,98787.06
2023-10-04T08:40:30.258Z,98783.91
2023-10-04T08:43:01.755Z,98785.44
2023-10-04T08:45:37.021Z,98789.53
2023-10-04T08:48:05.599Z,98777.72
2023-10-04T08:51:10.200Z,98779.22
2023-10-04T08:53:57.850Z,98776.28
2023-10-04T08:56:30.030Z,98772.31
2023-10-04T08:59:00.814Z,98777.91
2023-10-04T09:01:31.111Z,98768.09
2023-10-04T09:04:02.592Z,98768.31
2023-10-04T09:06:30.856Z,98779.66
2023-10-04T09:08:59.459Z,98783.38
2023-10-04T09:11:26.994Z,98766.22
2023-10-04T09:13:55.407Z,98778.53
2023-10-04T09:16:25.658Z,98775.97
2023-10-04T09:19:08.489Z,98773.16
2023-10-04T09:21:38.349Z,98778.06
2023-10-04T09:24:12.951Z,98781.56
2023-10-04T09:27:02.373Z,98777.81
2023-10-04T09:29:31.864Z,98773.16
2023-10-04T09:32:01.067Z,98778.66
2023-10-04T09:34:29.874Z,98789.28
2023-10-04T09:36:58.508Z,98780.16
2023-10-04T09:39:32.993Z,98780.38
2023-10-04T09:42:05.836Z,98780.75
2023-10-04T09:44:37.526Z,98783.59
2023-10-04T09:47:06.440Z,98782.41
2023-10-04T09:49:37.358Z,98786.97
2023-10-04T09:52:12.878Z,98785.78
2023-10-04T09:54:41.161Z,98774.50
2023-10-04T09:57:13.908Z,98774.28
2023-10-04T09:59:44.891Z,98775.38
2023-10-04T10:02:17.590Z,98769.56
2023-10-04T10:04:46.152Z,98783.31
2023-10-04T10:07:17.673Z,98795.75
2023-10-04T10:10:00.500Z,98798.22
2023-10-04T10:12:32.544Z,98793.25
2023-10-04T10:15:05.598Z,98783.91
2023-10-04T10:17:35.409Z,98779.81
2023-10-04T10:20:05.664Z,98781.03
2023-10-04T10:22:34.047Z,98781.84
2023-10-04T10:25:03.642Z,98779.34
2023-10-04T10:27:31.196Z,98782.22
2023-10-04T10:30:06.627Z,98785.00
2023-10-04T10:32:34.172Z,98778.53
2023-10-04T10:35:08.059Z,98782.81
2023-10-04T10:37:40.072Z,98782.66
2023-10-04T10:40:33.674Z,98788.63
2023-10-04T10:43:08.985Z,98791.16
2023-10-04T10:45:36.808Z,98795.84
2023-10-04T10:48:09.985Z,98779.44
2023-10-04T10:50:39.582Z,98785.63
2023-10-04T10:53:12.131Z,98795.78
2023-10-04T10:55:44.684Z,98805.66
2023-10-04T10:58:12.965Z,98784.16
2023-10-04T11:00:40.658Z,98785.84
2023-10-04T11:03:12.670Z,98788.44
2023-10-04T11:05:42.121Z,98789.38
2023-10-04T11:08:14.043Z,98784.44
2023-10-04T11:10:42.770Z,98782.44
2023-10-04T11:13:19.363Z,98785.50
2023-10-04T11:15:48.039Z,98790.88
2023-10-04T11:18:16.134Z,98787.09
2023-10-04T11:20:44.394Z,98788.72
2023-10-04T11:23:12.330Z,98767.81
2023-10-04T11:25:40.051Z,98771.31
2023-10-04T11:28:08.853Z,98778.28
2023-10-04T11:30:36.768Z,98774.19
2023-10-04T11:33:05.321Z,98764.94
2023-10-04T11:35:34.736Z,98770.41
2023-10-04T11:38:07.583Z,98761.66
2023-10-04T11:40:35.634Z,98764.63
2023-10-04T11:43:05.722Z,98755.44
2023-10-04T11:45:33.913Z,98754.53
2023-10-04T11:48:07.657Z,98754.69
2023-10-04T11:50:46.443Z,98754.50
2023-10-04T11:53:16.407Z,98761.44
2023-10-04T11:55:44.221Z,98752.97
2023-10-04T11:58:12.975Z,98752.75
2023-10-04T12:00:40.907Z,98754.03
2023-10-04T12:03:11.109Z,98765.28
2023-10-04T12:05:38.944Z,98759.41
2023-10-04T12:08:08.012Z,98764.72
2023-10-04T12:10:35.606Z,98765.22
2023-10-04T12:13:03.355Z,98764.97
2023-10-04T12:15:30.959Z,98768.03
2023-10-04T12:17:58.495Z,98763.25
2023-10-04T12:20:26.157Z,98771.44
2023-10-04T12:22:53.863Z,98776.66
2023-10-04T12:25:23.424Z,98783.38
2023-10-04T12:27:52.911Z,98787.28
2023-10-04T12:30:22.535Z,98786.03
2023-10-04T12:32:50.437Z,98783.22
2023-10-04T12:35:18.173Z,98775.09
2023-10-04T12:37:46.178Z,98771.50
2023-10-04T12:40:24.998Z,98775.41
2023-10-04T12:42:54.038Z,98777.22
2023-10-04T12:45:22.490Z,98778.44
2023-10-04T12:47:50.246Z,98774.25
2023-10-04T12:50:17.808Z,98776.94
2023-10-04T12:52:46.878Z,98777.28
2023-10-04T12:55:15.598Z,98779.97
2023-10-04T12:57:45.120Z,98785.50
2023-10-04T13:00:17.069Z,98779.22
2023-10-04T13:02:45.673Z,98779.63
2023-10-04T13:05:15.843Z,98785.81
2023-10-04T13:07:44.290Z,98778.63
2023-10-04T13:10:12.604Z,98787.13
2023-10-04T13:12:41.197Z,98785.53
2023-10-04T13:15:12.152Z,98780.78
2023-10-04T13:17:41.095Z,98784.63
2023-10-04T13:20:11.743Z,98777.16
2023-10-04T13:22:39.937Z,98785.41
2023-10-04T13:25:08.450Z,98781.91
2023-10-04T13:27:36.466Z,98780.53
2023-10-04T13:30:05.715Z,98780.69
2023-10-04T13:32:35.102Z,98776.06
2023-10-04T13:35:03.111Z,98774.97
2023-10-04T13:37:30.765Z,98774.16
2023-10-04T13:39:58.434Z,98773.13
2023-10-04T13:42:29.205Z,98770.63
2023-10-04T13:44:59.122Z,98760.94
2023-10-04T13:47:27.269Z,98759.91
2023-10-04T13:49:55.089Z,98760.94
2023-10-04T13:52:23.479Z,98754.75
2023-10-04T13:54:55.625Z,98760.28
2023-10-04T13:57:25.408Z,98754.50
2023-10-04T13:59:52.959Z,98749.91
2023-10-04T14:02:20.772Z,98752.38
2023-10-04T14:04:48.578Z,98750.91
2023-10-04T14:07:17.879Z,98749.00
2023-10-04T14:09:45.665Z,98754.16
2023-10-04T14:12:13.310Z,98750.47
2023-10-04T14:14:40.845Z,98749.66
2023-10-04T14:17:09.940Z,98740.50
2023-10-04T14:19:39.823Z,98742.00
2023-10-04T14:22:07.740Z,98751.22
2023-10-04T14:24:35.342Z,98747.31
2023-10-04T14:27:04.207Z,98744.84
2023-10-04T14:29:32.025Z,98743.25
2023-10-04T14:32:00.659Z,98746.25
2023-10-04T14:34:28.270Z,98744.38
2023-10-04T14:36:56.356Z,98742.56
2023-10-04T14:39:25.124Z,98744.38
2023-10-04T14:41:52.759Z,98748.59
2023-10-04T14:44:20.277Z,98743.22
2023-10-04T14:46:47.944Z,98737.69
2023-10-04T14:49:17.208Z,98738.00
2023-10-04T14:51:44.799Z,98739.41
2023-10-04T14:54:12.376Z,98735.22
2023-10-04T14:56:39.881Z,98726.59
2023-10-04T14:59:07.395Z,98727.53
2023-10-04T15:01:35.362Z,98714.81
2023-10-04T15:04:04.033Z,98728.34
2023-10-04T15:06:32.150Z,98722.56
2023-10-04T15:08:59.726Z,98724.88
2023-10-04T15:11:30.969Z,98718.34
2023-10-04T15:13:59.673Z,98724.97
2023-10-04T15:16:27.355Z,98719.34
2023-10-04T15:18:56.130Z,98728.53
2023-10-04T15:21:23.819Z,98714.06
2023-10-04T15:23:51.490Z,98719.56
2023-10-04T15:26:20.350Z,98726.06
2023-10-04T15:28:48.347Z,98728.44
2023-10-04T15:31:18.483Z,98736.06
2023-10-04T15:33:47.155Z,98730.72
2023-10-04T15:36:18.332Z,98732.00
2023-10-04T15:38:47.283Z,98732.94
2023-10-04T15:41:15.373Z,98725.75
2023-10-04T15:43:43.868Z,98727.84
2023-10-04T15:46:11.629Z,98728.44
2023-10-04T15:48:40.006Z,98729.94
2023-10-04T15:51:09.092Z,98736.84
2023-10-04T15:53:37.062Z,98730.06
2023-10-04T15:56:04.936Z,98728.09
2023-10-04T15:58:33.703Z,98728.00
2023-10-04T16:01:02.271Z,98738.03
2023-10-04T16:03:32.074Z,98736.16
2023-10-04T16:06:01.824Z,98734.59
2023-10-04T16:08:30.093Z,98729.94
2023-10-04T16:10:59.510Z,98726.53
2023-10-04T16:13:27.264Z,98734.25
2023-10-04T16:15:55.003Z,98725.72
2023-10-04T16:18:28.069Z,98733.06
2023-10-04T16:21:01.112Z,98730.25
2023-10-04T16:23:30.405Z,98732.22
2023-10-04T16:25:57.942Z,98731.63
2023-10-04T16:28:25.555Z,98728.94
2023-10-04T16:30:53.099Z,98732.31
2023-10-04T16:33:20.758Z,98732.41
2023-10-04T16:35:48.575Z,98737.97
2023-10-04T16:38:16.973Z,98746.47
2023-10-04T16:40:44.540Z,98749.63
2023-10-04T16:43:13.536Z,98739.34
2023-10-04T16:45:41.282Z,98750.78
2023-10-04T16:48:09.021Z,98746.06
2023-10-04T16:50:36.896Z,98748.63
2023-10-04T16:53:04.744Z,98749.09
2023-10-04T16:55:32.322Z,98745.81
2023-10-04T16:57:59.895Z,98750.44
2023-10-04T17:00:28.342Z,98753.78
2023-10-04T17:02:55.913Z,98751.81
2023-10-04T17:05:23.436Z,98749.94
2023-10-04T17:07:51.198Z,98750.97
2023-10-04T17:10:18.941Z,98754.94
2023-10-04T17:12:47.056Z,98755.50
2023-10-04T17:15:14.838Z,98761.56
2023-10-04T17:17:43.707Z,98760.94
2023-10-04T17:20:12.339Z,98757.63
2023-10-04T17:22:40.243Z,98759.44
2023-10-04T17:25:09.399Z,98762.97
2023-10-04T17:27:37.111Z,98764.75
2023-10-04T17:30:08.030Z,98767.03
2023-10-04T17:32:35.665Z,98765.66
2023-10-04T17:35:09.237Z,98766.66
2023-10-04T17:37:36.877Z,98767.72
2023-10-04T17:40:04.904Z,98765.50
2023-10-04T17:42:32.885Z,98764.72
2023-10-04T17:45:00.501Z,98765.63
2023-10-04T17:47:28.115Z,98768.31
2023-10-04T17:49:55.991Z,98764.41
2023-10-04T17:52:26.216Z,98769.56
2023-10-04T17:54:54.702Z,98777.19
2023-10-04T17:57:23.478Z,98772.69
2023-10-04T17:59:51.422Z,98766.72
2023-10-04T18:02:18.980Z,98774.31
2023-10-04T18:04:47.508Z,98770.28
2023-10-04T18:07:15.556Z,98768.94
2023-10-04T18:09:43.276Z,98772.50
2023-10-04T18:12:11.558Z,98774.97
2023-10-04T18:14:42.219Z,98776.44
2023-10-04T18:17:09.808Z,98761.00
2023-10-04T18:19:37.779Z,98763.00
2023-10-04T18:22:05.500Z,98770.72
2023-10-04T18:24:34.305Z,98759.47
2023-10-04T18:27:02.595Z,98763.56
2023-10-04T18:29:30.186Z,98771.22
2023-10-04T18:31:59.162Z,98758.88
2023-10-04T18:34:28.656Z,98753.38
2023-10-04T18:36:56.481Z,98758.28
2023-10-04T18:39:29.588Z,98758.72
2023-10-04T18:41:57.755Z,98752.03
2023-10-04T18:44:26.068Z,98746.88
2023-10-04T18:46:54.096Z,98750.78
2023-10-04T18:49:22.781Z,98741.09
2023-10-04T18:51:50.677Z,98752.13
2023-10-04T18:54:18.189Z,98755.59
2023-10-04T18:56:45.749Z,98747.44
2023-10-04T18:59:14.489Z,98748.69
2023-10-04T19:01:42.637Z,98754.91
2023-10-04T19:04:11.518Z,98750.19
2023-10-04T19:06:40.598Z,98748.75
2023-10-04T19:09:10.996Z,98752.44
2023-10-04T19:11:38.632Z,98749.63
2023-10-04T19:14:07.047Z,98740.56
2023-10-04T19:16:35.412Z,98743.03
2023-10-04T19:19:05.178Z,98741.66
2023-10-04T19:21:33.018Z,98742.91
2023-10-04T19:24:02.482Z,98749.94
2023-10-04T19:26:30.142Z,98749.81
2023-10-04T19:28:58.625Z,98758.91
2023-10-04T19:31:26.835Z,98745.31
2023-10-04T19:33:56.491Z,98750.03
2023-10-04T19:36:25.439Z,98752.94
2023-10-04T19:38:53.117Z,98745.34
2023-10-04T19:41:20.793Z,98746.53
2023-10-04T19:43:48.336Z,98736.25
2023-10-04T19:46:16.066Z,98744.91
2023-10-04T19:48:43.576Z,98753.34
2023-10-04T19:51:11.965Z,98756.84
2023-10-04T19:53:39.519Z,98745.31
2023-10-04T19:56:07.166Z,98737.53
2023-10-04T19:58:34.704Z,98749.44
2023-10-04T20:01:02.874Z,98752.56
2023-10-04T20:03:33.069Z,98747.63
2023-10-04T20:06:01.944Z,98754.00
2023-10-04T20:08:29.910Z,98739.63
2023-10-04T20:11:00.163Z,98745.81
2023-10-04T20:13:29.205Z,98738.38
2023-10-04T20:15:59.154Z,98740.47
2023-10-04T20:18:27.578Z,98738.38
2023-10-04T20:20:58.055Z,98737.19
2023-10-04T20:23:30.984Z,98735.16
2023-10-04T20:25:59.107Z,98725.50
2023-10-04T20:28:26.621Z,98726.78
2023-10-04T20:30:54.263Z,98718.44
2023-10-04T20:33:21.856Z,98720.91
2023-10-04T20:35:49.407Z,98721.13
2023-10-04T20:38:16.897Z,98721.72
2023-10-04T20:40:44.472Z,98726.25
2023-10-04T20:43:13.292Z,98722.53
2023-10-04T20:45:40.992Z,98722.13
2023-10-04T20:48:08.908Z,98718.44
2023-10-04T20:50:36.472Z,98713.25
2023-10-04T20:53:04.310Z,98706.94
2023-10-04T20:55:32.010Z,98712.69
2023-10-04T20:57:59.729Z,98719.59
2023-10-04T21:00:27.579Z,98720.25
2023-10-04T21:02:55.578Z,98716.34
2023-10-04T21:05:23.252Z,98728.84
2023-10-04T21:07:50.797Z,98721.63
2023-10-04T21:10:18.498Z,98729.03
2023-10-04T21:12:46.267Z,98727.59
2023-10-04T21:15:16.642Z,98733.19
2023-10-04T21:17:44.860Z,98724.59
2023-10-04T21:20:18.981Z,98720.09
2023-10-04T21:22:50.576Z,98725.47
2023-10-04T21:25:19.079Z,98726.09
2023-10-04T21:27:46.825Z,98721.75
2023-10-04T21:30:14.744Z,98726.25
2023-10-04T21:32:46.093Z,98725.22
2023-10-04T21:35:21.851Z,98726.63
2023-10-04T21:37:50.151Z,98721.28
2023-10-04T21:40:20.566Z,98716.00
2023-10-04T21:42:50.410Z,98723.63
2023-10-04T21:45:26.819Z,98720.94
2023-10-04T21:48:02.807Z,98721.53
2023-10-04T21:50:33.878Z,98716.78
2023-10-04T21:53:02.454Z,98705.28
2023-10-04T21:55:31.311Z,98708.13
2023-10-04T21:58:00.129Z,98709.38
2023-10-04T22:00:35.704Z,98705.50
2023-10-04T22:03:05.246Z,98706.09
2023-10-04T22:05:37.286Z,98698.50
2023-10-04T22:08:14.104Z,98688.84
2023-10-04T22:10:42.797Z,98679.25
2023-10-04T22:13:12.635Z,98677.78
2023-10-04T22:15:40.594Z,98681.50
2023-10-04T22:18:08.341Z,98665.00
2023-10-04T22:20:36.075Z,98674.22
2023-10-04T22:23:04.116Z,98668.31
2023-10-04T22:25:31.847Z,98665.06
2023-10-04T22:28:00.406Z,98665.72
2023-10-04T22:30:28.310Z,98663.88
2023-10-04T22:32:55.952Z,98652.41
2023-10-04T22:35:25.070Z,98662.66
2023-10-04T22:37:56.516Z,98666.19
2023-10-04T22:40:26.238Z,98660.69
2023-10-04T22:42:56.119Z,98662.56
2023-10-04T22:45:24.398Z,98664.84
2023-10-04T22:47:52.106Z,98661.78
2023-10-04T22:50:20.047Z,98657.88
2023-10-04T22:52:48.360Z,98649.47
2023-10-04T22:55:17.526Z,98642.28
2023-10-04T22:57:47.028Z,98641.06
2023-10-04T23:00:35.829Z,98642.28
2023-10-04T23:03:04.057Z,98643.09
2023-10-04T23:05:31.907Z,98629.78
2023-10-04T23:07:59.599Z,98635.53
2023-10-04T23:10:28.297Z,98634.31
2023-10-04T23:12:58.958Z,98626.31
2023-10-04T23:15:26.916Z,98618.69
2023-10-04T23:17:57.992Z,98616.41
2023-10-04T23:20:44.051Z,98619.69
2023-10-04T23:23:15.921Z,98608.41
2023-10-04T23:25:47.834Z,98612.31
2023-10-04T23:28:18.092Z,98614.59
2023-10-04T23:30:47.882Z,98604.13
2023-10-04T23:33:21.167Z,98606.81
2023-10-04T23:36:00.097Z,98597.97
2023-10-04T23:38:32.826Z,98608.44
2023-10-04T23:41:12.618Z,98611.44
2023-10-04T23:43:44.296Z,98607.78
2023-10-04T23:46:24.651Z,98607.53
2023-10-04T23:48:54.442Z,98619.66
2023-10-04T23:51:23.621Z,98604.03
2023-10-04T23:54:20.945Z,98606.53
2023-10-04T23:56:58.579Z,98608.00
2023-10-04T23:59:29.228Z,98606.50
